M Y Suncoco — SY7908 — position and weather

sailwx.info

Track history (hours):
 
Tides and Currents Weather Stations Pressure Air Temp Water Temp Dewpoint Dewpoint Depression Visibility Wind Speed Wind Dir Waves Ship Positions

M Y Suncoco

Last reported at 2015-Aug-31 16:27 UTC. Time now 2015-Sep-01 14:13 UTC.
Position N 37°48' E 023°46'.

Length 32 m; draft 2.8 m.

Type: Other ship. MMSI: 239112700.

Date/timePositionNaut miles runAvg speedWind from/ knotsBaromVisibWave heightAir tempDewpointWater temp
2015-Aug-31 16:27N 37°48' E 023°46'53 9.0
2015-Aug-31 10:34N 37°23' E 024°45'1110.9
2015-Aug-31 09:34N 37°21' E 024°59'1111.1
2015-Aug-31 08:33N 37°22' E 025°13'7 7.0
2015-Aug-31 07:33N 37°25' E 025°21'0 0.0
2015-Aug-31 06:33N 37°25' E 025°21'0 0.0
2015-Aug-31 05:33N 37°25' E 025°21'0 0.0
2015-Aug-31 04:33N 37°25' E 025°21'0 0.0
2015-Aug-31 03:33N 37°25' E 025°21'0 0.0
2015-Aug-31 02:30N 37°25' E 025°21'0 0.0
2015-Aug-31 01:33N 37°25' E 025°21'0 0.0
2015-Aug-31 00:33N 37°25' E 025°21'0 0.0
2015-Aug-30 23:33N 37°25' E 025°21'0 0.0
2015-Aug-30 22:33N 37°25' E 025°21'0 0.0
2015-Aug-30 21:33N 37°25' E 025°21'0 0.0
2015-Aug-30 20:24N 37°25' E 025°21'0 0.0
2015-Aug-30 19:33N 37°25' E 025°21'0 0.0
2015-Aug-30 18:33N 37°25' E 025°21'0 0.0
2015-Aug-30 17:30N 37°25' E 025°21'0 0.0
2015-Aug-30 16:33N 37°25' E 025°21'0 0.0
2015-Aug-30 15:33N 37°25' E 025°21'0 0.0
2015-Aug-30 14:33N 37°25' E 025°21'0 0.0
2015-Aug-30 13:33N 37°25' E 025°21'0 0.0
2015-Aug-30 12:33N 37°25' E 025°21'0 0.0
2015-Aug-30 11:33N 37°25' E 025°21'0 0.0
2015-Aug-30 10:33N 37°25' E 025°21'0 0.0
2015-Aug-30 09:33N 37°25' E 025°21'0 0.0
2015-Aug-30 08:33N 37°25' E 025°21'0 0.0
2015-Aug-30 07:33N 37°25' E 025°21'0 0.0
2015-Aug-30 06:30N 37°25' E 025°21'0 0.0
2015-Aug-30 05:33N 37°25' E 025°21'0 0.0
2015-Aug-30 04:33N 37°25' E 025°21'0 0.0
2015-Aug-30 03:33N 37°25' E 025°21'0 0.0
2015-Aug-30 02:33N 37°25' E 025°21'0 0.0
2015-Aug-30 01:33N 37°25' E 025°21'0 0.0
2015-Aug-30 00:33N 37°25' E 025°21'0 0.0
2015-Aug-29 23:33N 37°25' E 025°21'0 0.0
2015-Aug-29 22:33N 37°25' E 025°21'0 0.0
2015-Aug-29 21:33N 37°25' E 025°21'0 0.0
2015-Aug-29 20:33N 37°25' E 025°21'0 0.0
2015-Aug-29 19:33N 37°25' E 025°21'0 0.0
2015-Aug-29 18:33N 37°25' E 025°21'0 0.0
2015-Aug-29 17:30N 37°25' E 025°21'5 4.9
2015-Aug-29 16:33N 37°20' E 025°20'1010.1
2015-Aug-29 15:33N 37°10' E 025°19'9 9.5
2015-Aug-29 14:33N 37°01' E 025°15'8 1.6
2015-Aug-29 09:32N 37°02' E 025°05'0 0.0
2015-Aug-29 08:32N 37°02' E 025°05'9 4.6
2015-Aug-29 06:33N 37°01' E 025°16'9 8.9
2015-Aug-29 05:33N 37°10' E 025°16'2 2.0
2015-Aug-29 04:28N 37°09' E 025°14'0 0.0
2015-Aug-29 03:31N 37°09' E 025°14'0 0.0
2015-Aug-29 02:31N 37°09' E 025°14'0 0.0
2015-Aug-29 01:28N 37°09' E 025°14'0 0.0
2015-Aug-29 00:31N 37°09' E 025°14'0 0.0
2015-Aug-28 23:28N 37°09' E 025°14'0 0.0
2015-Aug-28 22:31N 37°09' E 025°14'0 0.0
2015-Aug-28 21:28N 37°09' E 025°14'0 0.0
2015-Aug-28 20:31N 37°09' E 025°14'0 0.0
2015-Aug-28 19:31N 37°09' E 025°14'0 0.0
2015-Aug-28 18:22N 37°09' E 025°14'0 0.0
2015-Aug-28 17:31N 37°09' E 025°14'0 0.0
2015-Aug-28 16:28N 37°09' E 025°14'0 0.0
2015-Aug-28 15:31N 37°09' E 025°14'0 0.0
2015-Aug-28 14:28N 37°09' E 025°14'0 0.0
2015-Aug-28 13:28N 37°09' E 025°14'0 0.0
2015-Aug-28 12:31N 37°09' E 025°14'0 0.0
2015-Aug-28 11:31N 37°09' E 025°14'0 0.0
2015-Aug-28 10:28N 37°09' E 025°14'0 0.0
2015-Aug-28 09:28N 37°09' E 025°14'0 0.0
2015-Aug-28 08:31N 37°09' E 025°14'7 7.5
2015-Aug-28 07:33N 37°15' E 025°18'1111.3
2015-Aug-28 06:33N 37°25' E 025°25'2 1.7
2015-Aug-28 05:31N 37°27' E 025°26'0 0.0
2015-Aug-28 04:31N 37°27' E 025°26'0 0.0
2015-Aug-28 03:28N 37°27' E 025°26'0 0.0
2015-Aug-28 02:31N 37°27' E 025°26'0 0.0
2015-Aug-28 01:31N 37°27' E 025°26'0 0.0
2015-Aug-28 00:31N 37°27' E 025°26'0 0.0
2015-Aug-27 23:31N 37°27' E 025°26'0 0.0
2015-Aug-27 22:28N 37°27' E 025°26'0 0.0
2015-Aug-27 21:31N 37°27' E 025°26'0 0.0
2015-Aug-27 20:28N 37°27' E 025°26'0 0.0
2015-Aug-27 19:28N 37°27' E 025°26'0 0.0
2015-Aug-27 18:28N 37°27' E 025°26'0 0.0
2015-Aug-27 17:31N 37°27' E 025°26'0 0.0
2015-Aug-27 16:31N 37°27' E 025°26'0 0.0
2015-Aug-27 15:31N 37°27' E 025°26'0 0.0
2015-Aug-27 14:28N 37°27' E 025°26'0 0.0
2015-Aug-27 13:25N 37°27' E 025°26'0 0.0
2015-Aug-27 12:28N 37°27' E 025°26'0 0.0
2015-Aug-27 11:28N 37°27' E 025°26'0 0.0
2015-Aug-27 10:28N 37°27' E 025°26'0 0.0
2015-Aug-27 09:31N 37°27' E 025°26'0 0.1
2015-Aug-27 08:34N 37°26' E 025°26'5 4.7
2015-Aug-27 07:33N 37°25' E 025°20'0 0.0
2015-Aug-27 06:33N 37°25' E 025°20'0 0.0
2015-Aug-27 05:33N 37°25' E 025°20'0 0.0
2015-Aug-27 04:33N 37°25' E 025°20'0 0.0
2015-Aug-27 03:33N 37°25' E 025°20'0 0.0
2015-Aug-27 02:33N 37°25' E 025°20'0 0.0
2015-Aug-27 01:33N 37°25' E 025°20'0 0.0
2015-Aug-27 00:33N 37°25' E 025°20'0 0.0
2015-Aug-26 23:33N 37°25' E 025°20'0 0.0
2015-Aug-26 22:33N 37°25' E 025°20'0 0.0
2015-Aug-26 21:33N 37°25' E 025°20'0 0.0
2015-Aug-26 20:33N 37°25' E 025°20'0 0.0
2015-Aug-26 19:33N 37°25' E 025°20'0 0.0
2015-Aug-26 18:33N 37°25' E 025°20'0 0.0
2015-Aug-26 17:33N 37°25' E 025°20'0 0.0
2015-Aug-26 16:33N 37°25' E 025°20'0 0.0
2015-Aug-26 15:33N 37°25' E 025°20'0 0.0
2015-Aug-26 14:33N 37°25' E 025°20'4 4.4
2015-Aug-26 13:33N 37°26' E 025°25'0 0.0
2015-Aug-26 12:30N 37°26' E 025°25'0 0.0
2015-Aug-26 11:33N 37°26' E 025°25'2 2.2
2015-Aug-26 10:34N 37°24' E 025°23'7 7.3
2015-Aug-26 09:33N 37°23' E 025°14'0 0.0
2015-Aug-26 08:33N 37°23' E 025°14'0 0.0
2015-Aug-26 07:33N 37°23' E 025°14'0 0.0
2015-Aug-26 06:33N 37°23' E 025°14'0 0.0
2015-Aug-26 05:33N 37°23' E 025°14'0 0.0
2015-Aug-26 04:33N 37°23' E 025°14'0 0.0
2015-Aug-26 03:32N 37°23' E 025°14'0 0.0
2015-Aug-26 02:32N 37°23' E 025°14'0 0.0
2015-Aug-26 01:33N 37°23' E 025°14'0 0.0
2015-Aug-26 00:33N 37°23' E 025°14'0 0.0
2015-Aug-25 23:33N 37°23' E 025°14'0 0.0
2015-Aug-25 22:33N 37°23' E 025°14'0 0.0
2015-Aug-25 21:32N 37°23' E 025°14'0 0.0
2015-Aug-25 20:33N 37°23' E 025°14'0 0.0
2015-Aug-25 19:33N 37°23' E 025°14'0 0.0
2015-Aug-25 18:32N 37°23' E 025°14'0 0.0
2015-Aug-25 17:33N 37°23' E 025°14'0 0.0
2015-Aug-25 16:33N 37°23' E 025°14'0 0.0
2015-Aug-25 15:32N 37°23' E 025°14'0 0.1
2015-Aug-25 14:32N 37°23' E 025°14'4 4.5
2015-Aug-25 13:32N 37°25' E 025°19'0 0.0
2015-Aug-25 12:32N 37°25' E 025°19'0 0.0
2015-Aug-25 11:26N 37°25' E 025°19'2 2.2
2015-Aug-25 10:33N 37°24' E 025°21'1 1.1
2015-Aug-25 09:31N 37°25' E 025°22'0 0.0
2015-Aug-25 08:31N 37°25' E 025°22'2 2.1
2015-Aug-25 07:33N 37°26' E 025°25'0 0.2
2015-Aug-25 06:33N 37°26' E 025°25'0 0.0
2015-Aug-25 05:33N 37°26' E 025°25'0 0.0
2015-Aug-25 04:33N 37°26' E 025°25'0 0.0
2015-Aug-25 03:33N 37°26' E 025°25'0 0.0
2015-Aug-25 02:33N 37°26' E 025°25'0 0.0
2015-Aug-25 01:33N 37°26' E 025°25'0 0.0
2015-Aug-25 00:33N 37°26' E 025°25'0 0.0
2015-Aug-24 23:33N 37°26' E 025°25'0 0.0
2015-Aug-24 22:33N 37°26' E 025°25'0 0.0
2015-Aug-24 21:27N 37°26' E 025°25'0 0.0
2015-Aug-24 20:33N 37°26' E 025°25'0 0.0
2015-Aug-24 19:33N 37°26' E 025°25'0 0.0
2015-Aug-24 18:30N 37°26' E 025°25'0 0.0
2015-Aug-24 17:30N 37°26' E 025°25'0 0.0
2015-Aug-24 16:30N 37°26' E 025°25'3 2.9
2015-Aug-24 15:33N 37°24' E 025°22'1 1.1
2015-Aug-24 14:32N 37°25' E 025°21'0 0.0
2015-Aug-24 13:32N 37°25' E 025°21'0 0.0
2015-Aug-24 12:32N 37°25' E 025°21'0 0.0
2015-Aug-24 11:32N 37°25' E 025°21'0 0.0
2015-Aug-24 10:29N 37°25' E 025°21'0 0.0
2015-Aug-24 09:32N 37°25' E 025°21'0 0.0
2015-Aug-24 08:32N 37°25' E 025°21'0 0.0
2015-Aug-24 07:32N 37°25' E 025°21'0 0.0
2015-Aug-24 06:32N 37°25' E 025°21'0 0.0
2015-Aug-24 05:32N 37°25' E 025°21'0 0.0
2015-Aug-24 04:29N 37°25' E 025°21'0 0.0
2015-Aug-24 03:26N 37°25' E 025°21'0 0.0
2015-Aug-24 02:29N 37°25' E 025°21'0 0.0
2015-Aug-24 01:29N 37°25' E 025°21'0 0.0
2015-Aug-24 00:32N 37°25' E 025°21'0 0.0
2015-Aug-23 23:32N 37°25' E 025°21'0 0.0
2015-Aug-23 22:32N 37°25' E 025°21'0 0.0
2015-Aug-23 21:32N 37°25' E 025°21'0 0.0
2015-Aug-23 20:32N 37°25' E 025°21'0 0.0
2015-Aug-23 19:29N 37°25' E 025°21'0 0.0
2015-Aug-23 18:32N 37°25' E 025°21'0 0.0
2015-Aug-23 17:32N 37°25' E 025°21'0 0.0
2015-Aug-23 16:29N 37°25' E 025°21'0 0.0
2015-Aug-23 15:32N 37°25' E 025°21'0 0.0
2015-Aug-23 14:32N 37°25' E 025°21'0 0.0
2015-Aug-23 13:32N 37°25' E 025°21'0 0.0
2015-Aug-23 12:32N 37°25' E 025°21'0 0.0
2015-Aug-23 11:32N 37°25' E 025°21'0 0.0
2015-Aug-23 10:32N 37°25' E 025°21'0 0.0
2015-Aug-23 09:29N 37°25' E 025°21'0 0.0
2015-Aug-23 08:32N 37°25' E 025°21'0 0.0
2015-Aug-23 07:32N 37°25' E 025°21'0 0.0
2015-Aug-23 06:32N 37°25' E 025°21'0 0.0
2015-Aug-23 05:32N 37°25' E 025°21'0 0.0
2015-Aug-23 04:29N 37°25' E 025°21'0 0.0
2015-Aug-23 03:32N 37°25' E 025°21'0 0.0
2015-Aug-23 02:32N 37°25' E 025°21'0 0.0
2015-Aug-23 01:29N 37°25' E 025°21'0 0.0
2015-Aug-23 00:32N 37°25' E 025°21'0 0.0
2015-Aug-22 23:32N 37°25' E 025°21'0 0.0
2015-Aug-22 22:26N 37°25' E 025°21'0 0.0
2015-Aug-22 21:32N 37°25' E 025°21'0 0.0
2015-Aug-22 20:32N 37°25' E 025°21'0 0.0
2015-Aug-22 19:32N 37°25' E 025°21'0 0.0
2015-Aug-22 18:32N 37°25' E 025°21'0 0.0
2015-Aug-22 17:32N 37°25' E 025°21'0 0.0
2015-Aug-22 16:29N 37°25' E 025°21'0 0.0
2015-Aug-22 15:32N 37°25' E 025°21'0 0.0
2015-Aug-22 14:32N 37°25' E 025°21'0 0.0
2015-Aug-22 13:29N 37°25' E 025°21'0 0.0
2015-Aug-22 12:32N 37°25' E 025°21'0 0.0
2015-Aug-22 11:32N 37°25' E 025°21'0 0.0
2015-Aug-22 10:26N 37°25' E 025°21'0 0.0
2015-Aug-22 09:32N 37°25' E 025°21'0 0.0
2015-Aug-22 08:32N 37°25' E 025°21'0 0.0
2015-Aug-22 07:32N 37°25' E 025°21'0 0.0
2015-Aug-22 06:32N 37°25' E 025°21'0 0.0
2015-Aug-22 05:32N 37°25' E 025°21'0 0.0
2015-Aug-22 04:32N 37°25' E 025°21'0 0.0
2015-Aug-22 03:32N 37°25' E 025°21'0 0.0
2015-Aug-22 02:32N 37°25' E 025°21'0 0.0
2015-Aug-22 01:32N 37°25' E 025°21'0 0.0
2015-Aug-22 00:29N 37°25' E 025°21'0 0.0
2015-Aug-21 23:32N 37°25' E 025°21'0 0.0
2015-Aug-21 22:23N 37°25' E 025°21'0 0.0
2015-Aug-21 21:32N 37°25' E 025°21'0 0.0
2015-Aug-21 20:32N 37°25' E 025°21'0 0.0
2015-Aug-21 19:32N 37°25' E 025°21'0 0.0
2015-Aug-21 18:29N 37°25' E 025°21'0 0.0
2015-Aug-21 17:32N 37°25' E 025°21'0 0.0
2015-Aug-21 16:32N 37°25' E 025°21'  
Track history (hours):
 
Tides and Currents Weather Stations Pressure Air Temp Water Temp Dewpoint Dewpoint Depression Visibility Wind Speed Wind Dir Waves Ship Positions

M Y Suncoco

Last reported at 2015-Aug-31 16:27 UTC. Time now 2015-Sep-01 14:13 UTC.
Position N 37°48' E 023°46'.

Length 32 m; draft 2.8 m.

Type: Other ship. MMSI: 239112700.

Date/timePositionNaut miles runAvg speedWind from/ knotsBaromVisibWave heightAir tempDewpointWater temp
2015-Aug-31 16:27N 37°48' E 023°46'53 9.0
2015-Aug-31 10:34N 37°23' E 024°45'1110.9
2015-Aug-31 09:34N 37°21' E 024°59'1111.1
2015-Aug-31 08:33N 37°22' E 025°13'7 7.0
2015-Aug-31 07:33N 37°25' E 025°21'0 0.0
2015-Aug-31 06:33N 37°25' E 025°21'0 0.0
2015-Aug-31 05:33N 37°25' E 025°21'0 0.0
2015-Aug-31 04:33N 37°25' E 025°21'0 0.0
2015-Aug-31 03:33N 37°25' E 025°21'0 0.0
2015-Aug-31 02:30N 37°25' E 025°21'0 0.0
2015-Aug-31 01:33N 37°25' E 025°21'0 0.0
2015-Aug-31 00:33N 37°25' E 025°21'0 0.0
2015-Aug-30 23:33N 37°25' E 025°21'0 0.0
2015-Aug-30 22:33N 37°25' E 025°21'0 0.0
2015-Aug-30 21:33N 37°25' E 025°21'0 0.0
2015-Aug-30 20:24N 37°25' E 025°21'0 0.0
2015-Aug-30 19:33N 37°25' E 025°21'0 0.0
2015-Aug-30 18:33N 37°25' E 025°21'0 0.0
2015-Aug-30 17:30N 37°25' E 025°21'0 0.0
2015-Aug-30 16:33N 37°25' E 025°21'0 0.0
2015-Aug-30 15:33N 37°25' E 025°21'0 0.0
2015-Aug-30 14:33N 37°25' E 025°21'0 0.0
2015-Aug-30 13:33N 37°25' E 025°21'0 0.0
2015-Aug-30 12:33N 37°25' E 025°21'0 0.0
2015-Aug-30 11:33N 37°25' E 025°21'0 0.0
2015-Aug-30 10:33N 37°25' E 025°21'0 0.0
2015-Aug-30 09:33N 37°25' E 025°21'0 0.0
2015-Aug-30 08:33N 37°25' E 025°21'0 0.0
2015-Aug-30 07:33N 37°25' E 025°21'0 0.0
2015-Aug-30 06:30N 37°25' E 025°21'0 0.0
2015-Aug-30 05:33N 37°25' E 025°21'0 0.0
2015-Aug-30 04:33N 37°25' E 025°21'0 0.0
2015-Aug-30 03:33N 37°25' E 025°21'0 0.0
2015-Aug-30 02:33N 37°25' E 025°21'0 0.0
2015-Aug-30 01:33N 37°25' E 025°21'0 0.0
2015-Aug-30 00:33N 37°25' E 025°21'0 0.0
2015-Aug-29 23:33N 37°25' E 025°21'0 0.0
2015-Aug-29 22:33N 37°25' E 025°21'0 0.0
2015-Aug-29 21:33N 37°25' E 025°21'0 0.0
2015-Aug-29 20:33N 37°25' E 025°21'0 0.0
2015-Aug-29 19:33N 37°25' E 025°21'0 0.0
2015-Aug-29 18:33N 37°25' E 025°21'0 0.0
2015-Aug-29 17:30N 37°25' E 025°21'5 4.9
2015-Aug-29 16:33N 37°20' E 025°20'1010.1
2015-Aug-29 15:33N 37°10' E 025°19'9 9.5
2015-Aug-29 14:33N 37°01' E 025°15'8 1.6
2015-Aug-29 09:32N 37°02' E 025°05'0 0.0
2015-Aug-29 08:32N 37°02' E 025°05'9 4.6
2015-Aug-29 06:33N 37°01' E 025°16'9 8.9
2015-Aug-29 05:33N 37°10' E 025°16'2 2.0
2015-Aug-29 04:28N 37°09' E 025°14'0 0.0
2015-Aug-29 03:31N 37°09' E 025°14'0 0.0
2015-Aug-29 02:31N 37°09' E 025°14'0 0.0
2015-Aug-29 01:28N 37°09' E 025°14'0 0.0
2015-Aug-29 00:31N 37°09' E 025°14'0 0.0
2015-Aug-28 23:28N 37°09' E 025°14'0 0.0
2015-Aug-28 22:31N 37°09' E 025°14'0 0.0
2015-Aug-28 21:28N 37°09' E 025°14'0 0.0
2015-Aug-28 20:31N 37°09' E 025°14'0 0.0
2015-Aug-28 19:31N 37°09' E 025°14'0 0.0
2015-Aug-28 18:22N 37°09' E 025°14'0 0.0
2015-Aug-28 17:31N 37°09' E 025°14'0 0.0
2015-Aug-28 16:28N 37°09' E 025°14'0 0.0
2015-Aug-28 15:31N 37°09' E 025°14'0 0.0
2015-Aug-28 14:28N 37°09' E 025°14'0 0.0
2015-Aug-28 13:28N 37°09' E 025°14'0 0.0
2015-Aug-28 12:31N 37°09' E 025°14'0 0.0
2015-Aug-28 11:31N 37°09' E 025°14'0 0.0
2015-Aug-28 10:28N 37°09' E 025°14'0 0.0
2015-Aug-28 09:28N 37°09' E 025°14'0 0.0
2015-Aug-28 08:31N 37°09' E 025°14'7 7.5
2015-Aug-28 07:33N 37°15' E 025°18'1111.3
2015-Aug-28 06:33N 37°25' E 025°25'2 1.7
2015-Aug-28 05:31N 37°27' E 025°26'0 0.0
2015-Aug-28 04:31N 37°27' E 025°26'0 0.0
2015-Aug-28 03:28N 37°27' E 025°26'0 0.0
2015-Aug-28 02:31N 37°27' E 025°26'0 0.0
2015-Aug-28 01:31N 37°27' E 025°26'0 0.0
2015-Aug-28 00:31N 37°27' E 025°26'0 0.0
2015-Aug-27 23:31N 37°27' E 025°26'0 0.0
2015-Aug-27 22:28N 37°27' E 025°26'0 0.0
2015-Aug-27 21:31N 37°27' E 025°26'0 0.0
2015-Aug-27 20:28N 37°27' E 025°26'0 0.0
2015-Aug-27 19:28N 37°27' E 025°26'0 0.0
2015-Aug-27 18:28N 37°27' E 025°26'0 0.0
2015-Aug-27 17:31N 37°27' E 025°26'0 0.0
2015-Aug-27 16:31N 37°27' E 025°26'0 0.0
2015-Aug-27 15:31N 37°27' E 025°26'0 0.0
2015-Aug-27 14:28N 37°27' E 025°26'0 0.0
2015-Aug-27 13:25N 37°27' E 025°26'0 0.0
2015-Aug-27 12:28N 37°27' E 025°26'0 0.0
2015-Aug-27 11:28N 37°27' E 025°26'0 0.0
2015-Aug-27 10:28N 37°27' E 025°26'0 0.0
2015-Aug-27 09:31N 37°27' E 025°26'0 0.1
2015-Aug-27 08:34N 37°26' E 025°26'5 4.7
2015-Aug-27 07:33N 37°25' E 025°20'0 0.0
2015-Aug-27 06:33N 37°25' E 025°20'0 0.0
2015-Aug-27 05:33N 37°25' E 025°20'0 0.0
2015-Aug-27 04:33N 37°25' E 025°20'0 0.0
2015-Aug-27 03:33N 37°25' E 025°20'0 0.0
2015-Aug-27 02:33N 37°25' E 025°20'0 0.0
2015-Aug-27 01:33N 37°25' E 025°20'0 0.0
2015-Aug-27 00:33N 37°25' E 025°20'0 0.0
2015-Aug-26 23:33N 37°25' E 025°20'0 0.0
2015-Aug-26 22:33N 37°25' E 025°20'0 0.0
2015-Aug-26 21:33N 37°25' E 025°20'0 0.0
2015-Aug-26 20:33N 37°25' E 025°20'0 0.0
2015-Aug-26 19:33N 37°25' E 025°20'0 0.0
2015-Aug-26 18:33N 37°25' E 025°20'0 0.0
2015-Aug-26 17:33N 37°25' E 025°20'0 0.0
2015-Aug-26 16:33N 37°25' E 025°20'0 0.0
2015-Aug-26 15:33N 37°25' E 025°20'0 0.0
2015-Aug-26 14:33N 37°25' E 025°20'4 4.4
2015-Aug-26 13:33N 37°26' E 025°25'0 0.0
2015-Aug-26 12:30N 37°26' E 025°25'0 0.0
2015-Aug-26 11:33N 37°26' E 025°25'2 2.2
2015-Aug-26 10:34N 37°24' E 025°23'7 7.3
2015-Aug-26 09:33N 37°23' E 025°14'0 0.0
2015-Aug-26 08:33N 37°23' E 025°14'0 0.0
2015-Aug-26 07:33N 37°23' E 025°14'0 0.0
2015-Aug-26 06:33N 37°23' E 025°14'0 0.0
2015-Aug-26 05:33N 37°23' E 025°14'0 0.0
2015-Aug-26 04:33N 37°23' E 025°14'0 0.0
2015-Aug-26 03:32N 37°23' E 025°14'0 0.0
2015-Aug-26 02:32N 37°23' E 025°14'0 0.0
2015-Aug-26 01:33N 37°23' E 025°14'0 0.0
2015-Aug-26 00:33N 37°23' E 025°14'0 0.0
2015-Aug-25 23:33N 37°23' E 025°14'0 0.0
2015-Aug-25 22:33N 37°23' E 025°14'0 0.0
2015-Aug-25 21:32N 37°23' E 025°14'0 0.0
2015-Aug-25 20:33N 37°23' E 025°14'0 0.0
2015-Aug-25 19:33N 37°23' E 025°14'0 0.0
2015-Aug-25 18:32N 37°23' E 025°14'0 0.0
2015-Aug-25 17:33N 37°23' E 025°14'0 0.0
2015-Aug-25 16:33N 37°23' E 025°14'0 0.0
2015-Aug-25 15:32N 37°23' E 025°14'0 0.1
2015-Aug-25 14:32N 37°23' E 025°14'4 4.5
2015-Aug-25 13:32N 37°25' E 025°19'0 0.0
2015-Aug-25 12:32N 37°25' E 025°19'0 0.0
2015-Aug-25 11:26N 37°25' E 025°19'2 2.2
2015-Aug-25 10:33N 37°24' E 025°21'1 1.1
2015-Aug-25 09:31N 37°25' E 025°22'0 0.0
2015-Aug-25 08:31N 37°25' E 025°22'2 2.1
2015-Aug-25 07:33N 37°26' E 025°25'0 0.2
2015-Aug-25 06:33N 37°26' E 025°25'0 0.0
2015-Aug-25 05:33N 37°26' E 025°25'0 0.0
2015-Aug-25 04:33N 37°26' E 025°25'0 0.0
2015-Aug-25 03:33N 37°26' E 025°25'0 0.0
2015-Aug-25 02:33N 37°26' E 025°25'0 0.0
2015-Aug-25 01:33N 37°26' E 025°25'0 0.0
2015-Aug-25 00:33N 37°26' E 025°25'0 0.0
2015-Aug-24 23:33N 37°26' E 025°25'0 0.0
2015-Aug-24 22:33N 37°26' E 025°25'0 0.0
2015-Aug-24 21:27N 37°26' E 025°25'0 0.0
2015-Aug-24 20:33N 37°26' E 025°25'0 0.0
2015-Aug-24 19:33N 37°26' E 025°25'0 0.0
2015-Aug-24 18:30N 37°26' E 025°25'0 0.0
2015-Aug-24 17:30N 37°26' E 025°25'0 0.0
2015-Aug-24 16:30N 37°26' E 025°25'3 2.9
2015-Aug-24 15:33N 37°24' E 025°22'1 1.1
2015-Aug-24 14:32N 37°25' E 025°21'0 0.0
2015-Aug-24 13:32N 37°25' E 025°21'0 0.0
2015-Aug-24 12:32N 37°25' E 025°21'0 0.0
2015-Aug-24 11:32N 37°25' E 025°21'0 0.0
2015-Aug-24 10:29N 37°25' E 025°21'0 0.0
2015-Aug-24 09:32N 37°25' E 025°21'0 0.0
2015-Aug-24 08:32N 37°25' E 025°21'0 0.0
2015-Aug-24 07:32N 37°25' E 025°21'0 0.0
2015-Aug-24 06:32N 37°25' E 025°21'0 0.0
2015-Aug-24 05:32N 37°25' E 025°21'0 0.0
2015-Aug-24 04:29N 37°25' E 025°21'0 0.0
2015-Aug-24 03:26N 37°25' E 025°21'0 0.0
2015-Aug-24 02:29N 37°25' E 025°21'0 0.0
2015-Aug-24 01:29N 37°25' E 025°21'0 0.0
2015-Aug-24 00:32N 37°25' E 025°21'0 0.0
2015-Aug-23 23:32N 37°25' E 025°21'0 0.0
2015-Aug-23 22:32N 37°25' E 025°21'0 0.0
2015-Aug-23 21:32N 37°25' E 025°21'0 0.0
2015-Aug-23 20:32N 37°25' E 025°21'0 0.0
2015-Aug-23 19:29N 37°25' E 025°21'0 0.0
2015-Aug-23 18:32N 37°25' E 025°21'0 0.0
2015-Aug-23 17:32N 37°25' E 025°21'0 0.0
2015-Aug-23 16:29N 37°25' E 025°21'0 0.0
2015-Aug-23 15:32N 37°25' E 025°21'0 0.0
2015-Aug-23 14:32N 37°25' E 025°21'0 0.0
2015-Aug-23 13:32N 37°25' E 025°21'0 0.0
2015-Aug-23 12:32N 37°25' E 025°21'0 0.0
2015-Aug-23 11:32N 37°25' E 025°21'0 0.0
2015-Aug-23 10:32N 37°25' E 025°21'0 0.0
2015-Aug-23 09:29N 37°25' E 025°21'0 0.0
2015-Aug-23 08:32N 37°25' E 025°21'0 0.0
2015-Aug-23 07:32N 37°25' E 025°21'0 0.0
2015-Aug-23 06:32N 37°25' E 025°21'0 0.0
2015-Aug-23 05:32N 37°25' E 025°21'0 0.0
2015-Aug-23 04:29N 37°25' E 025°21'0 0.0
2015-Aug-23 03:32N 37°25' E 025°21'0 0.0
2015-Aug-23 02:32N 37°25' E 025°21'0 0.0
2015-Aug-23 01:29N 37°25' E 025°21'0 0.0
2015-Aug-23 00:32N 37°25' E 025°21'0 0.0
2015-Aug-22 23:32N 37°25' E 025°21'0 0.0
2015-Aug-22 22:26N 37°25' E 025°21'0 0.0
2015-Aug-22 21:32N 37°25' E 025°21'0 0.0
2015-Aug-22 20:32N 37°25' E 025°21'0 0.0
2015-Aug-22 19:32N 37°25' E 025°21'0 0.0
2015-Aug-22 18:32N 37°25' E 025°21'0 0.0
2015-Aug-22 17:32N 37°25' E 025°21'0 0.0
2015-Aug-22 16:29N 37°25' E 025°21'0 0.0
2015-Aug-22 15:32N 37°25' E 025°21'0 0.0
2015-Aug-22 14:32N 37°25' E 025°21'0 0.0
2015-Aug-22 13:29N 37°25' E 025°21'0 0.0
2015-Aug-22 12:32N 37°25' E 025°21'0 0.0
2015-Aug-22 11:32N 37°25' E 025°21'0 0.0
2015-Aug-22 10:26N 37°25' E 025°21'0 0.0
2015-Aug-22 09:32N 37°25' E 025°21'0 0.0
2015-Aug-22 08:32N 37°25' E 025°21'0 0.0
2015-Aug-22 07:32N 37°25' E 025°21'0 0.0
2015-Aug-22 06:32N 37°25' E 025°21'0 0.0
2015-Aug-22 05:32N 37°25' E 025°21'0 0.0
2015-Aug-22 04:32N 37°25' E 025°21'0 0.0
2015-Aug-22 03:32N 37°25' E 025°21'0 0.0
2015-Aug-22 02:32N 37°25' E 025°21'0 0.0
2015-Aug-22 01:32N 37°25' E 025°21'0 0.0
2015-Aug-22 00:29N 37°25' E 025°21'0 0.0
2015-Aug-21 23:32N 37°25' E 025°21'0 0.0
2015-Aug-21 22:23N 37°25' E 025°21'0 0.0
2015-Aug-21 21:32N 37°25' E 025°21'0 0.0
2015-Aug-21 20:32N 37°25' E 025°21'0 0.0
2015-Aug-21 19:32N 37°25' E 025°21'0 0.0
2015-Aug-21 18:29N 37°25' E 025°21'0 0.0
2015-Aug-21 17:32N 37°25' E 025°21'0 0.0
2015-Aug-21 16:32N 37°25' E 025°21'  

Dump ship's entire track history